This is the latest recevied weather packets stored in our database for station/object KB1LTW-13. If no packets are shown the sender has not sent any weather packets the latest 10 day(s).
| Time | Temp. | Humidity | Pressure | Rain* | Wind** | Luminosity | Snow |
|---|---|---|---|---|---|---|---|
| 1777648882 | 12.22° C | 42% | 1013.6 hPa | 0 mm | - | 768 W/m² | - |
| 1777648280 | 12.22° C | 42% | 1013.7 hPa | 0 mm | - | 741 W/m² | - |
| 1777645284 | 10.56° C | 51% | 1013.8 hPa | 0 mm | - | 685 W/m² | - |
| 1777644098 | 10.56° C | 51% | 1013.6 hPa | 0 mm | - | 685 W/m² | - |
| 1777642283 | 9.44° C | 55% | 1013.9 hPa | 0 mm | - | 296 W/m² | - |
| 1777641704 | 8.89° C | 56% | 1014 hPa | 0 mm | - | 277 W/m² | - |
| 1777641082 | 8.89° C | 60% | 1013.8 hPa | 0 mm | - | 200 W/m² | - |
| 1777640486 | 8.33° C | 62% | 1013.9 hPa | 0 mm | - | 96 W/m² | - |
| 1777637484 | 6.11° C | 77% | 1013.9 hPa | 0 mm | - | 81 W/m² | - |
| 1777628506 | 3.33° C | 89% | 1012.7 hPa | 0 mm | - | 1 W/m² | - |
| 1777624876 | 4.44° C | 81% | 1012.3 hPa | 0 mm | - | 0 W/m² | - |
| 1777620099 | 5.56° C | 75% | 1012 hPa | 0 mm | - | 0 W/m² | - |
| 1777619479 | 5.56° C | 75% | 1011.8 hPa | 0 mm | - | 0 W/m² | - |
| 1777614085 | 6.11° C | 74% | 1011.5 hPa | 0 mm | - | 0 W/m² | - |
| 1777612880 | 6.67° C | 74% | 1011.7 hPa | 0 mm | - | 0 W/m² | - |
| 1777612282 | 6.67° C | 74% | 1011.5 hPa | 0 mm | - | 0 W/m² | - |
| 1777609282 | 6.67° C | 72% | 1011.2 hPa | 0 mm | - | 0 W/m² | - |
| 1777606281 | 7.22° C | 68% | 1010.9 hPa | 0 mm | - | 0 W/m² | - |
| 1777605682 | 7.22° C | 69% | 1011.2 hPa | 0 mm | - | 0 W/m² | - |
| 1777603296 | 8.33° C | 69% | 1011.2 hPa | 0 mm | - | 0 W/m² | - |
| 1777599700 | 8.89° C | 70% | 1010.8 hPa | 0 mm | - | 0 W/m² | - |
| 1777598526 | 9.44° C | 70% | 1010.9 hPa | 0 mm | - | 0 W/m² | - |
| 1777596700 | 10° C | 72% | 1010.4 hPa | 0 mm | - | 0 W/m² | - |
| 1777591296 | 11.67° C | 73% | 1009.7 hPa | 0 mm | - | 10 W/m² | - |
| 1777588307 | 12.22° C | 73% | 1009 hPa | 0 mm | - | 48 W/m² | - |
* Rain latest hour (hover to see other rain measurements)
** Current wind speed in m/s (hover to see current wind gust speed)